Ile Surprise, New Caledonia
Current Conditions -  °F | °C
As of 8:30 PM on Saturday 25 Oct 2014 (Local Time) from NWWW Reporting Station
Broken Clouds Broken Clouds  
Wind Chill: 66°   Ceiling: 6200
Heat Index: 66°   Visibility: 6mi
Dew Point: 55°   Wind: 3mph
Humidity: 68%   Direction: 80°E
Pressure: 30.06"   Gusts: NA
Location:  18.48°S, 163.08°E
Report Text: NWWW 250930Z AUTO 08003KT 9999 BKN062 BKN140 19/13 Q1018
Loading
Personal Weather Stations






























Interactive Weather Map
Tropical Storm Tracking
New forecast layout! Learn more

10-Day Weather Forecast

Advertisements
Track Severe Weather on mobile